createdAt,value
2022-11-19T00:00:39.133Z,99.99
2022-11-19T00:01:39.120Z,99.99
2022-11-19T00:02:39.087Z,99.99
2022-11-19T00:03:39.074Z,99.99
2022-11-19T00:04:39.073Z,99.99
2022-11-19T00:05:39.049Z,99.99
2022-11-19T00:06:39.046Z,99.99
2022-11-19T00:07:39.109Z,99.99
2022-11-19T00:08:39.020Z,99.99
2022-11-19T00:09:39.011Z,99.99
2022-11-19T00:10:39.000Z,99.99
2022-11-19T00:11:38.980Z,99.99
2022-11-19T00:12:38.969Z,99.99
2022-11-19T00:13:38.951Z,99.99
2022-11-19T00:14:38.943Z,99.99
2022-11-19T00:15:38.930Z,99.99
2022-11-19T00:16:38.916Z,99.99
2022-11-19T00:17:38.899Z,99.99
2022-11-19T00:18:38.882Z,99.99
2022-11-19T00:19:38.880Z,99.99
2022-11-19T00:20:38.860Z,99.99
2022-11-19T00:21:38.856Z,99.99
2022-11-19T00:22:38.839Z,99.99
2022-11-19T00:23:38.845Z,99.99
2022-11-19T00:24:38.816Z,99.99
2022-11-19T00:25:38.801Z,99.99
2022-11-19T00:26:38.782Z,99.99
2022-11-19T00:27:38.769Z,99.99
2022-11-19T00:28:38.762Z,99.99
2022-11-19T00:29:38.753Z,99.99
2022-11-19T00:30:47.966Z,99.99
2022-11-19T00:31:39.752Z,99.99
2022-11-19T00:32:38.716Z,99.99
2022-11-19T00:33:38.696Z,99.99
2022-11-19T00:34:38.687Z,99.99
2022-11-19T00:35:38.667Z,99.99
2022-11-19T00:36:38.655Z,99.99
2022-11-19T00:37:38.642Z,99.99
2022-11-19T00:38:38.648Z,99.99
2022-11-19T00:39:38.643Z,99.99
2022-11-19T00:40:38.604Z,99.99
2022-11-19T00:41:38.595Z,99.99
2022-11-19T00:42:38.578Z,99.99
2022-11-19T00:43:38.572Z,99.99
2022-11-19T00:44:38.549Z,99.99
2022-11-19T00:45:38.544Z,99.99
2022-11-19T00:46:38.530Z,99.99
2022-11-19T00:47:38.518Z,99.99
2022-11-19T00:48:38.514Z,99.99
2022-11-19T00:49:38.500Z,99.99
2022-11-19T00:50:38.477Z,99.99
2022-11-19T00:51:38.470Z,99.99
2022-11-19T00:52:38.456Z,99.99
2022-11-19T00:53:38.448Z,99.99
2022-11-19T00:54:38.426Z,99.99
2022-11-19T00:55:38.447Z,99.99
2022-11-19T00:56:38.405Z,99.99
2022-11-19T00:57:38.387Z,99.99
2022-11-19T00:58:38.373Z,99.99
2022-11-19T00:59:38.367Z,99.99
2022-11-19T01:00:38.356Z,99.99
2022-11-19T01:01:38.423Z,99.99
2022-11-19T01:02:38.322Z,99.99
2022-11-19T01:03:38.318Z,99.99
2022-11-19T01:04:38.296Z,99.99
2022-11-19T01:05:38.298Z,99.99
2022-11-19T01:06:38.279Z,99.99
2022-11-19T01:07:38.306Z,99.99
2022-11-19T01:08:38.242Z,99.99
2022-11-19T01:09:38.231Z,99.99
2022-11-19T01:10:38.224Z,99.99
2022-11-19T01:11:38.233Z,99.99
2022-11-19T01:12:38.191Z,99.99
2022-11-19T01:13:38.187Z,99.99
2022-11-19T01:14:38.166Z,99.99
2022-11-19T01:15:38.154Z,99.99
2022-11-19T01:16:38.151Z,99.99
2022-11-19T01:17:38.135Z,99.99
2022-11-19T01:18:38.126Z,99.99
2022-11-19T01:19:38.113Z,99.99
2022-11-19T01:20:38.192Z,99.99
2022-11-19T01:21:38.090Z,99.99
2022-11-19T01:22:38.071Z,99.99
2022-11-19T01:23:38.057Z,99.99
2022-11-19T01:24:38.042Z,99.99
2022-11-19T01:25:38.033Z,99.99
2022-11-19T01:26:40.575Z,99.99
2022-11-19T01:27:39.071Z,99.99
2022-11-19T01:28:37.987Z,99.99
2022-11-19T01:29:37.973Z,99.99
2022-11-19T01:30:37.962Z,99.99
2022-11-19T01:31:37.953Z,99.99
2022-11-19T01:32:37.943Z,99.99
2022-11-19T01:33:37.928Z,99.99
2022-11-19T01:34:37.911Z,99.99
2022-11-19T01:35:37.910Z,99.99
2022-11-19T01:36:37.893Z,99.99
2022-11-19T01:37:37.868Z,99.99
2022-11-19T01:38:37.867Z,99.99
2022-11-19T01:39:37.842Z,99.99
2022-11-19T01:40:37.836Z,99.99
2022-11-19T01:41:37.831Z,99.99
2022-11-19T01:42:37.828Z,99.99
2022-11-19T01:43:37.825Z,99.99
2022-11-19T01:44:37.797Z,99.99
2022-11-19T01:45:37.786Z,99.99
2022-11-19T01:46:37.778Z,99.99
2022-11-19T01:47:37.744Z,99.99
2022-11-19T01:48:37.727Z,99.99
2022-11-19T01:49:37.729Z,99.99
2022-11-19T01:50:37.708Z,99.99
2022-11-19T01:51:37.704Z,99.99
2022-11-19T01:52:37.682Z,99.99
2022-11-19T01:53:37.669Z,99.99
2022-11-19T01:54:37.663Z,99.99
2022-11-19T01:55:37.656Z,99.99
2022-11-19T01:56:37.635Z,99.99
2022-11-19T01:57:37.617Z,99.99
2022-11-19T01:58:37.611Z,99.99
2022-11-19T01:59:37.617Z,99.99
2022-11-19T02:00:37.579Z,99.99
2022-11-19T02:01:37.649Z,99.99
2022-11-19T02:02:37.549Z,99.99
2022-11-19T02:03:37.539Z,99.99
2022-11-19T02:04:37.530Z,99.99
2022-11-19T02:05:37.521Z,99.99
2022-11-19T02:06:37.501Z,99.99
2022-11-19T02:07:37.501Z,99.99
2022-11-19T02:08:37.482Z,99.99
2022-11-19T02:09:37.463Z,99.99
2022-11-19T02:10:37.460Z,99.99
2022-11-19T02:11:37.442Z,99.99
2022-11-19T02:12:37.434Z,99.99
2022-11-19T02:13:37.412Z,99.99
2022-11-19T02:14:37.406Z,99.99
2022-11-19T02:15:37.410Z,99.99
2022-11-19T02:16:37.381Z,99.99
2022-11-19T02:17:37.378Z,99.99
2022-11-19T02:18:37.358Z,99.99
2022-11-19T02:19:37.344Z,99.99
2022-11-19T02:20:37.326Z,99.99
2022-11-19T02:21:37.313Z,99.99
2022-11-19T02:22:37.312Z,99.99
2022-11-19T02:23:40.666Z,99.99
2022-11-19T02:24:38.312Z,99.99
2022-11-19T02:25:37.266Z,99.99
2022-11-19T02:26:37.250Z,99.99
2022-11-19T02:27:37.241Z,99.99
2022-11-19T02:28:37.220Z,99.99
2022-11-19T02:29:37.207Z,99.99
2022-11-19T02:30:37.214Z,99.99
2022-11-19T02:31:37.209Z,99.99
2022-11-19T02:32:37.173Z,99.99
2022-11-19T02:33:37.157Z,99.99
2022-11-19T02:34:37.145Z,99.99
2022-11-19T02:35:37.132Z,99.99
2022-11-19T02:36:37.123Z,99.99
2022-11-19T02:37:37.116Z,99.99
2022-11-19T02:38:37.092Z,99.99
2022-11-19T02:39:37.086Z,99.99
2022-11-19T02:40:37.064Z,99.99
2022-11-19T02:41:37.056Z,99.99
2022-11-19T02:42:37.044Z,99.99
2022-11-19T02:43:37.033Z,99.99
2022-11-19T02:44:37.017Z,99.99
2022-11-19T02:45:37.011Z,99.99
2022-11-19T02:46:36.999Z,99.99
2022-11-19T02:47:37.007Z,99.99
2022-11-19T02:48:36.968Z,99.99
2022-11-19T02:49:36.950Z,99.99
2022-11-19T02:50:36.950Z,99.99
2022-11-19T02:51:36.936Z,99.99
2022-11-19T02:52:36.926Z,99.99
2022-11-19T02:53:36.912Z,99.99
2022-11-19T02:54:36.896Z,99.99
2022-11-19T02:55:36.884Z,99.99
2022-11-19T02:56:36.869Z,99.99
2022-11-19T02:57:36.850Z,99.99
2022-11-19T02:58:36.837Z,99.99
2022-11-19T02:59:36.830Z,99.99
2022-11-19T03:00:36.820Z,99.99
2022-11-19T03:01:36.847Z,99.99
2022-11-19T03:02:36.794Z,99.99
2022-11-19T03:03:36.807Z,99.99
2022-11-19T03:04:36.763Z,99.99
2022-11-19T03:05:36.747Z,99.99
2022-11-19T03:06:36.734Z,99.99
2022-11-19T03:07:36.810Z,99.99
2022-11-19T03:08:36.718Z,99.99
2022-11-19T03:09:36.713Z,99.99
2022-11-19T03:10:36.694Z,99.99
2022-11-19T03:11:36.676Z,99.99
2022-11-19T03:12:36.658Z,99.99
2022-11-19T03:13:36.651Z,99.99
2022-11-19T03:14:36.636Z,99.99
2022-11-19T03:15:36.627Z,99.99
2022-11-19T03:16:36.610Z,99.99
2022-11-19T03:17:36.601Z,99.99
2022-11-19T03:18:36.591Z,99.99
2022-11-19T03:19:36.631Z,99.99
2022-11-19T03:20:36.565Z,99.99
2022-11-19T03:21:36.544Z,99.99
2022-11-19T03:22:36.553Z,99.99
2022-11-19T03:23:36.525Z,99.99
2022-11-19T03:24:36.524Z,99.99
2022-11-19T03:25:36.493Z,99.99
2022-11-19T03:26:36.483Z,99.99
2022-11-19T03:27:36.490Z,99.99
2022-11-19T03:28:36.452Z,99.99
2022-11-19T03:29:36.439Z,99.99
2022-11-19T03:30:36.435Z,99.99
2022-11-19T03:31:36.422Z,99.99
2022-11-19T03:32:36.402Z,99.99
2022-11-19T03:33:36.405Z,99.99
2022-11-19T03:34:36.384Z,99.99
2022-11-19T03:35:36.394Z,99.99
2022-11-19T03:36:36.360Z,99.99
2022-11-19T03:37:36.335Z,99.99
2022-11-19T03:38:36.324Z,99.99
2022-11-19T03:39:36.310Z,99.99
2022-11-19T03:40:36.304Z,99.99
2022-11-19T03:41:36.284Z,99.99
2022-11-19T03:42:36.278Z,99.99
2022-11-19T03:43:36.262Z,99.99
2022-11-19T03:44:36.250Z,99.99
2022-11-19T03:45:36.233Z,99.99
2022-11-19T03:46:36.218Z,99.99
2022-11-19T03:47:36.221Z,99.99
2022-11-19T03:48:36.190Z,99.99
2022-11-19T03:49:36.177Z,99.99
2022-11-19T03:50:36.164Z,99.99
2022-11-19T03:51:36.186Z,99.99
2022-11-19T03:52:36.148Z,99.99
2022-11-19T03:53:36.146Z,99.99
2022-11-19T03:54:36.114Z,99.99
2022-11-19T03:55:36.102Z,99.99
2022-11-19T03:56:36.093Z,99.99
2022-11-19T03:57:36.085Z,99.99
2022-11-19T03:58:36.060Z,99.99
2022-11-19T03:59:36.058Z,99.99
2022-11-19T04:00:36.031Z,99.99
2022-11-19T04:01:36.083Z,99.99
2022-11-19T04:02:36.012Z,99.99
2022-11-19T04:03:35.995Z,99.99
2022-11-19T04:04:35.989Z,99.99
2022-11-19T04:05:35.967Z,99.99
2022-11-19T04:06:35.970Z,99.99
2022-11-19T04:07:36.092Z,99.99
2022-11-19T04:08:35.937Z,99.99
2022-11-19T04:09:35.935Z,99.99
2022-11-19T04:10:35.905Z,99.99
2022-11-19T04:11:35.907Z,99.99
2022-11-19T04:12:35.885Z,99.99
2022-11-19T04:13:35.876Z,99.99
2022-11-19T04:14:35.853Z,99.99
2022-11-19T04:15:35.843Z,99.99
2022-11-19T04:16:35.834Z,99.99
2022-11-19T04:17:35.815Z,99.99
2022-11-19T04:18:35.811Z,99.99
2022-11-19T04:19:35.790Z,99.99
2022-11-19T04:20:35.780Z,99.99
2022-11-19T04:21:35.757Z,99.99
2022-11-19T04:22:35.755Z,99.99
2022-11-19T04:23:35.752Z,99.99
2022-11-19T04:24:35.716Z,99.99
2022-11-19T04:25:35.707Z,99.99
2022-11-19T04:26:35.690Z,99.99
2022-11-19T04:27:35.687Z,99.99
2022-11-19T04:28:35.666Z,99.99
2022-11-19T04:29:35.658Z,99.99
2022-11-19T04:30:35.644Z,99.99
2022-11-19T04:31:35.631Z,99.99
2022-11-19T04:32:35.613Z,99.99
2022-11-19T04:33:35.602Z,99.99
2022-11-19T04:34:35.588Z,99.99
2022-11-19T04:35:35.578Z,99.99
2022-11-19T04:36:35.575Z,99.99
2022-11-19T04:37:35.561Z,99.99
2022-11-19T04:38:35.539Z,99.99
2022-11-19T04:39:35.551Z,99.99
2022-11-19T04:40:35.503Z,99.99
2022-11-19T04:41:35.507Z,99.99
2022-11-19T04:42:35.481Z,99.99
2022-11-19T04:43:35.466Z,99.99
2022-11-19T04:44:35.452Z,99.99
2022-11-19T04:45:35.445Z,99.99
2022-11-19T04:46:35.431Z,99.99
2022-11-19T04:47:35.414Z,99.99
2022-11-19T04:48:35.406Z,99.99
2022-11-19T04:49:35.386Z,99.99
2022-11-19T04:50:35.383Z,99.99
2022-11-19T04:51:35.364Z,99.99
2022-11-19T04:52:40.606Z,99.99
2022-11-19T04:53:35.332Z,99.99
2022-11-19T04:54:35.326Z,99.99
2022-11-19T04:55:35.354Z,99.99
2022-11-19T04:56:35.291Z,99.99
2022-11-19T04:57:35.279Z,99.99
2022-11-19T04:58:35.269Z,99.99
2022-11-19T04:59:35.255Z,99.99
2022-11-19T05:00:35.245Z,99.99
2022-11-19T05:01:35.305Z,99.99
2022-11-19T05:02:35.220Z,99.99
2022-11-19T05:03:35.215Z,99.99
2022-11-19T05:04:35.185Z,99.99
2022-11-19T05:05:35.181Z,99.99
2022-11-19T05:06:35.164Z,99.99
2022-11-19T05:07:35.195Z,99.99
2022-11-19T05:08:35.142Z,99.99
2022-11-19T05:09:35.121Z,99.99
2022-11-19T05:10:35.108Z,99.99
2022-11-19T05:11:35.129Z,99.99
2022-11-19T05:12:35.083Z,99.99
2022-11-19T05:13:35.069Z,99.99
2022-11-19T05:14:35.058Z,99.99
2022-11-19T05:15:35.045Z,99.99
2022-11-19T05:16:35.027Z,99.99
2022-11-19T05:17:35.055Z,99.99
2022-11-19T05:18:35.001Z,99.99
2022-11-19T05:19:34.986Z,99.99
2022-11-19T05:20:34.984Z,99.99
2022-11-19T05:21:34.966Z,99.99
2022-11-19T05:22:34.949Z,99.99
2022-11-19T05:23:34.932Z,99.99
2022-11-19T05:24:34.930Z,99.99
2022-11-19T05:25:34.906Z,99.99
2022-11-19T05:26:34.897Z,99.99
2022-11-19T05:27:34.913Z,99.99
2022-11-19T05:28:38.915Z,99.99
2022-11-19T05:29:34.859Z,99.99
2022-11-19T05:30:34.841Z,99.99
2022-11-19T05:31:34.830Z,99.99
2022-11-19T05:32:34.825Z,99.99
2022-11-19T05:33:34.903Z,99.99
2022-11-19T05:34:34.788Z,99.99
2022-11-19T05:35:34.782Z,99.99
2022-11-19T05:36:34.754Z,99.99
2022-11-19T05:37:34.743Z,99.99
2022-11-19T05:38:34.758Z,99.99
2022-11-19T05:39:34.715Z,99.99
2022-11-19T05:40:34.703Z,99.99
2022-11-19T05:41:34.688Z,99.99
2022-11-19T05:42:34.683Z,99.99
2022-11-19T05:43:34.692Z,99.99
2022-11-19T05:44:34.657Z,99.99
2022-11-19T05:45:34.638Z,99.99
2022-11-19T05:46:34.624Z,99.99
2022-11-19T05:47:34.616Z,99.99
2022-11-19T05:48:34.601Z,99.99
2022-11-19T05:49:34.594Z,99.99
2022-11-19T05:50:34.574Z,99.99
2022-11-19T05:51:34.570Z,99.99
2022-11-19T05:52:34.552Z,99.99
2022-11-19T05:53:34.534Z,99.99
2022-11-19T05:54:34.580Z,99.99
2022-11-19T05:55:34.508Z,99.99
2022-11-19T05:56:34.494Z,99.99
2022-11-19T05:57:34.486Z,99.99
2022-11-19T05:58:34.473Z,99.99
2022-11-19T05:59:34.505Z,99.99
2022-11-19T06:00:34.450Z,99.99
2022-11-19T06:01:34.431Z,99.99
2022-11-19T06:02:34.474Z,99.99
2022-11-19T06:03:34.401Z,99.99
2022-11-19T06:04:34.392Z,99.99
2022-11-19T06:05:39.820Z,99.99
2022-11-19T06:06:35.401Z,99.99
2022-11-19T06:07:34.500Z,99.99
2022-11-19T06:08:34.344Z,99.99
2022-11-19T06:09:34.342Z,99.99
2022-11-19T06:10:34.326Z,99.99
2022-11-19T06:11:34.303Z,99.99
2022-11-19T06:12:34.293Z,99.99
2022-11-19T06:13:34.273Z,99.99
2022-11-19T06:14:34.265Z,99.99
2022-11-19T06:15:34.274Z,99.99
2022-11-19T06:16:34.239Z,99.99
2022-11-19T06:17:34.225Z,99.99
2022-11-19T06:18:34.216Z,99.99
2022-11-19T06:19:34.206Z,99.99
2022-11-19T06:20:34.187Z,99.99
2022-11-19T06:21:34.177Z,99.99
2022-11-19T06:22:34.158Z,99.99
2022-11-19T06:23:34.151Z,99.99
2022-11-19T06:24:34.142Z,99.99
2022-11-19T06:25:34.126Z,99.99
2022-11-19T06:26:34.111Z,99.99
2022-11-19T06:27:34.102Z,99.99
2022-11-19T06:28:34.087Z,99.99
2022-11-19T06:29:34.081Z,99.99
2022-11-19T06:30:34.056Z,99.99
2022-11-19T06:31:34.064Z,99.99
2022-11-19T06:32:34.036Z,99.99
2022-11-19T06:33:34.025Z,99.99
2022-11-19T06:34:34.011Z,99.99
2022-11-19T06:35:33.993Z,99.99
2022-11-19T06:36:40.217Z,99.99
2022-11-19T06:37:33.975Z,99.99
2022-11-19T06:38:33.956Z,99.99
2022-11-19T06:39:33.945Z,99.99
2022-11-19T06:40:33.927Z,99.99
2022-11-19T06:41:33.912Z,99.99
2022-11-19T06:42:33.903Z,99.99
2022-11-19T06:43:33.889Z,99.99
2022-11-19T06:44:33.879Z,99.99
2022-11-19T06:45:33.868Z,99.99
2022-11-19T06:46:33.852Z,99.99
2022-11-19T06:47:33.869Z,99.99
2022-11-19T06:48:33.824Z,99.99
2022-11-19T06:49:33.813Z,99.99
2022-11-19T06:50:33.803Z,99.99
2022-11-19T06:51:33.785Z,99.99
2022-11-19T06:52:33.772Z,99.99
2022-11-19T06:53:33.769Z,99.99
2022-11-19T06:54:34.523Z,99.99
2022-11-19T06:55:33.736Z,99.99
2022-11-19T06:56:33.713Z,99.99
2022-11-19T06:57:33.706Z,99.99
2022-11-19T06:58:33.709Z,99.99
2022-11-19T06:59:33.692Z,99.99
2022-11-19T07:00:33.670Z,99.99
2022-11-19T07:01:33.671Z,99.99
2022-11-19T07:02:33.652Z,99.99
2022-11-19T07:03:33.656Z,99.99
2022-11-19T07:04:33.615Z,99.99
2022-11-19T07:05:33.609Z,99.99
2022-11-19T07:06:33.593Z,99.99
2022-11-19T07:07:33.638Z,99.99
2022-11-19T07:08:33.570Z,99.99
2022-11-19T07:09:33.555Z,99.99
2022-11-19T07:10:33.547Z,99.99
2022-11-19T07:11:33.530Z,99.99
2022-11-19T07:12:33.531Z,99.99
2022-11-19T07:13:33.515Z,99.99
2022-11-19T07:14:33.488Z,99.99
2022-11-19T07:15:33.496Z,99.99
2022-11-19T07:16:33.470Z,99.99
2022-11-19T07:17:33.454Z,99.99
2022-11-19T07:18:33.444Z,99.99
2022-11-19T07:19:33.481Z,99.99
2022-11-19T07:20:33.420Z,99.99
2022-11-19T07:21:33.404Z,99.99
2022-11-19T07:22:33.395Z,99.99
2022-11-19T07:23:33.373Z,99.99
2022-11-19T07:24:33.376Z,99.99
2022-11-19T07:25:33.349Z,99.99
2022-11-19T07:26:33.340Z,99.99
2022-11-19T07:27:33.332Z,99.99
2022-11-19T07:28:33.321Z,99.99
2022-11-19T07:29:33.306Z,99.99
2022-11-19T07:30:33.289Z,99.99
2022-11-19T07:31:33.311Z,99.99
2022-11-19T07:32:33.267Z,99.99
2022-11-19T07:33:33.248Z,99.99
2022-11-19T07:34:33.228Z,99.99
2022-11-19T07:35:33.315Z,99.99
2022-11-19T07:36:33.220Z,99.99
2022-11-19T07:37:33.191Z,99.99
2022-11-19T07:38:37.003Z,99.99
2022-11-19T07:39:33.178Z,99.99
2022-11-19T07:40:33.165Z,99.99
2022-11-19T07:41:33.144Z,99.99
2022-11-19T07:42:33.132Z,99.99
2022-11-19T07:43:33.116Z,99.99
2022-11-19T07:44:33.156Z,99.99
2022-11-19T07:45:33.099Z,99.99
2022-11-19T07:46:33.086Z,99.99
2022-11-19T07:47:33.063Z,99.99
2022-11-19T07:48:33.044Z,99.99
2022-11-19T07:49:33.030Z,99.99
2022-11-19T07:50:33.019Z,99.99
2022-11-19T07:51:33.042Z,99.99
2022-11-19T07:52:33.001Z,99.99
2022-11-19T07:53:32.979Z,99.99
2022-11-19T07:54:32.969Z,99.99
2022-11-19T07:55:32.960Z,99.99
2022-11-19T07:56:32.947Z,99.99
2022-11-19T07:57:32.933Z,99.99
2022-11-19T07:58:32.918Z,99.99
2022-11-19T07:59:32.931Z,99.99
2022-11-19T08:00:32.895Z,99.99
2022-11-19T08:01:32.936Z,99.99
2022-11-19T08:02:32.867Z,99.99
2022-11-19T08:03:32.856Z,99.99
2022-11-19T08:04:32.850Z,99.99
2022-11-19T08:05:32.828Z,99.99
2022-11-19T08:06:32.822Z,99.99
2022-11-19T08:07:32.947Z,99.99
2022-11-19T08:08:32.793Z,99.99
2022-11-19T08:09:32.780Z,99.99
2022-11-19T08:10:32.808Z,99.99
2022-11-19T08:11:32.751Z,99.99
2022-11-19T08:12:32.736Z,99.99
2022-11-19T08:13:32.730Z,99.99
2022-11-19T08:14:32.707Z,99.99
2022-11-19T08:15:32.702Z,99.99
2022-11-19T08:16:32.675Z,99.99
2022-11-19T08:17:32.685Z,99.99
2022-11-19T08:18:32.664Z,99.99
2022-11-19T08:19:32.644Z,99.99
2022-11-19T08:20:32.633Z,99.99
2022-11-19T08:21:32.613Z,99.99
2022-11-19T08:22:32.610Z,99.99
2022-11-19T08:23:32.620Z,99.99
2022-11-19T08:24:32.574Z,99.99
2022-11-19T08:25:32.571Z,99.99
2022-11-19T08:26:32.555Z,99.99
2022-11-19T08:27:32.536Z,99.99
2022-11-19T08:28:32.536Z,99.99
2022-11-19T08:29:32.518Z,99.99
2022-11-19T08:30:32.504Z,99.99
2022-11-19T08:31:32.484Z,99.99
2022-11-19T08:32:32.479Z,99.99
2022-11-19T08:33:32.461Z,99.99
2022-11-19T08:34:32.458Z,99.99
2022-11-19T08:35:32.440Z,99.99
2022-11-19T08:36:32.436Z,99.99
2022-11-19T08:37:32.431Z,99.99
2022-11-19T08:38:38.263Z,99.99
2022-11-19T08:39:33.443Z,99.99
2022-11-19T08:40:32.388Z,99.99
2022-11-19T08:41:32.367Z,99.38
2022-11-19T08:42:32.353Z,99.07
2022-11-19T08:43:32.340Z,99.13
2022-11-19T08:44:32.326Z,98.71
2022-11-19T08:45:32.306Z,98.30
2022-11-19T08:46:32.295Z,97.67
2022-11-19T08:47:32.299Z,97.36
2022-11-19T08:48:32.271Z,97.16
2022-11-19T08:49:32.270Z,97.26
2022-11-19T08:50:32.286Z,97.47
2022-11-19T08:51:32.246Z,97.47
2022-11-19T08:52:32.224Z,97.47
2022-11-19T08:53:32.209Z,97.67
2022-11-19T08:54:32.204Z,97.67
2022-11-19T08:55:32.213Z,97.57
2022-11-19T08:56:32.178Z,97.57
2022-11-19T08:57:32.155Z,97.57
2022-11-19T08:58:32.144Z,97.67
2022-11-19T08:59:32.137Z,97.63
2022-11-19T09:00:32.198Z,97.38
2022-11-19T09:01:32.111Z,96.66
2022-11-19T09:02:32.098Z,96.24
2022-11-19T09:03:32.080Z,96.24
2022-11-19T09:04:32.066Z,95.98
2022-11-19T09:05:32.048Z,95.56
2022-11-19T09:06:32.054Z,95.56
2022-11-19T09:07:32.087Z,95.53
2022-11-19T09:08:32.019Z,94.67
2022-11-19T09:09:31.994Z,93.75
2022-11-19T09:10:31.988Z,91.58
2022-11-19T09:11:32.000Z,90.66
2022-11-19T09:12:31.966Z,90.92
2022-11-19T09:13:31.951Z,90.14
2022-11-19T09:14:31.947Z,90.14
2022-11-19T09:15:31.925Z,90.45
2022-11-19T09:16:31.925Z,90.45
2022-11-19T09:17:31.905Z,90.76
2022-11-19T09:18:31.898Z,89.62
2022-11-19T09:19:31.883Z,90.10
2022-11-19T09:20:31.861Z,89.79
2022-11-19T09:21:31.853Z,88.72
2022-11-19T09:22:31.841Z,88.20
2022-11-19T09:23:31.837Z,88.62
2022-11-19T09:24:31.814Z,88.82
2022-11-19T09:25:31.807Z,88.41
2022-11-19T09:26:31.789Z,88.89
2022-11-19T09:27:31.794Z,88.37
2022-11-19T09:28:31.781Z,89.13
2022-11-19T09:29:31.749Z,89.40
2022-11-19T09:30:31.747Z,89.36
2022-11-19T09:31:31.728Z,87.90
2022-11-19T09:32:31.718Z,84.40
2022-11-19T09:33:31.698Z,84.61
2022-11-19T09:34:31.679Z,85.36
2022-11-19T09:35:31.674Z,85.26
2022-11-19T09:36:31.659Z,85.47
2022-11-19T09:37:31.654Z,86.13
2022-11-19T09:38:31.643Z,86.43
2022-11-19T09:39:31.646Z,87.05
2022-11-19T09:40:31.604Z,86.95
2022-11-19T09:41:31.607Z,87.71
2022-11-19T09:42:31.577Z,87.51
2022-11-19T09:43:31.605Z,88.23
2022-11-19T09:44:31.553Z,87.54
2022-11-19T09:45:31.549Z,88.57
2022-11-19T09:46:31.532Z,89.19
2022-11-19T09:47:31.521Z,89.50
2022-11-19T09:48:31.504Z,89.50
2022-11-19T09:49:31.488Z,89.19
2022-11-19T09:50:31.487Z,89.46
2022-11-19T09:51:31.462Z,88.14
2022-11-19T09:52:31.458Z,85.60
2022-11-19T09:53:31.435Z,84.34
2022-11-19T09:54:31.430Z,83.18
2022-11-19T09:55:31.418Z,81.95
2022-11-19T09:56:31.416Z,81.99
2022-11-19T09:57:31.392Z,82.09
2022-11-19T09:58:31.391Z,82.81
2022-11-19T09:59:31.384Z,83.36
2022-11-19T10:00:31.359Z,82.23
2022-11-19T10:01:31.346Z,81.64
2022-11-19T10:02:31.357Z,81.34
2022-11-19T10:03:33.734Z,80.65
2022-11-19T10:04:31.294Z,81.92
2022-11-19T10:05:31.287Z,81.76
2022-11-19T10:06:31.280Z,82.45
2022-11-19T10:07:31.304Z,83.58
2022-11-19T10:08:31.252Z,85.43
2022-11-19T10:09:31.243Z,86.05
2022-11-19T10:10:31.227Z,86.35
2022-11-19T10:11:31.214Z,87.07
2022-11-19T10:12:31.204Z,84.71
2022-11-19T10:13:31.188Z,82.86
2022-11-19T10:14:31.196Z,81.97
2022-11-19T10:15:37.137Z,83.62
2022-11-19T10:16:32.188Z,85.41
2022-11-19T10:17:31.136Z,85.61
2022-11-19T10:18:31.129Z,86.13
2022-11-19T10:19:31.178Z,85.30
2022-11-19T10:20:31.095Z,84.58
2022-11-19T10:21:31.081Z,84.03
2022-11-19T10:22:31.067Z,83.41
2022-11-19T10:23:31.063Z,84.38
2022-11-19T10:24:31.049Z,83.65
2022-11-19T10:25:31.040Z,83.51
2022-11-19T10:26:31.030Z,82.86
2022-11-19T10:27:31.012Z,82.45
2022-11-19T10:28:31.001Z,82.99
2022-11-19T10:29:30.984Z,81.51
2022-11-19T10:30:30.977Z,80.90
2022-11-19T10:31:30.987Z,80.79
2022-11-19T10:32:30.948Z,80.07
2022-11-19T10:33:30.934Z,80.49
2022-11-19T10:34:30.927Z,80.55
2022-11-19T10:35:30.911Z,81.06
2022-11-19T10:36:30.899Z,80.35
2022-11-19T10:37:30.888Z,80.65
2022-11-19T10:38:30.876Z,80.14
2022-11-19T10:39:30.861Z,80.41
2022-11-19T10:40:30.844Z,79.55
2022-11-19T10:41:30.836Z,79.49
2022-11-19T10:42:30.826Z,79.52
2022-11-19T10:43:30.808Z,78.12
2022-11-19T10:44:30.795Z,79.46
2022-11-19T10:45:30.777Z,80.93
2022-11-19T10:46:30.763Z,80.35
2022-11-19T10:47:30.799Z,81.28
2022-11-19T10:48:30.739Z,81.38
2022-11-19T10:49:30.733Z,81.93
2022-11-19T10:50:30.720Z,83.48
2022-11-19T10:51:30.715Z,82.65
2022-11-19T10:52:30.691Z,83.68
2022-11-19T10:53:30.691Z,83.06
2022-11-19T10:54:30.667Z,84.40
2022-11-19T10:55:30.655Z,84.30
2022-11-19T10:56:30.636Z,83.37
2022-11-19T10:57:30.625Z,83.03
2022-11-19T10:58:30.607Z,82.00
2022-11-19T10:59:30.595Z,82.82
2022-11-19T11:00:30.580Z,80.15
2022-11-19T11:01:30.678Z,81.38
2022-11-19T11:02:30.569Z,81.55
2022-11-19T11:03:30.571Z,80.42
2022-11-19T11:04:30.541Z,81.55
2022-11-19T11:05:30.527Z,80.73
2022-11-19T11:06:30.512Z,82.33
2022-11-19T11:07:30.562Z,80.52
2022-11-19T11:08:30.484Z,79.29
2022-11-19T11:09:30.467Z,78.61
2022-11-19T11:10:30.480Z,78.71
2022-11-19T11:11:30.441Z,80.46
2022-11-19T11:12:30.485Z,82.00
2022-11-19T11:13:30.417Z,81.38
2022-11-19T11:14:30.403Z,82.00
2022-11-19T11:15:30.407Z,81.18
2022-11-19T11:16:35.175Z,79.63
2022-11-19T11:17:31.401Z,79.80
2022-11-19T11:18:30.354Z,80.21
2022-11-19T11:19:30.373Z,81.00
2022-11-19T11:20:30.333Z,79.56
2022-11-19T11:21:30.310Z,78.53
2022-11-19T11:22:30.317Z,79.46
2022-11-19T11:23:30.574Z,79.15
2022-11-19T11:24:30.280Z,80.38
2022-11-19T11:25:30.263Z,79.19
2022-11-19T11:26:30.252Z,77.03
2022-11-19T11:27:30.242Z,78.78
2022-11-19T11:28:30.228Z,79.63
2022-11-19T11:29:30.261Z,80.66
2022-11-19T11:30:30.188Z,80.66
2022-11-19T11:31:30.191Z,81.48
2022-11-19T11:32:30.169Z,80.35
2022-11-19T11:33:30.160Z,81.32
2022-11-19T11:34:30.153Z,80.60
2022-11-19T11:35:30.177Z,80.91
2022-11-19T11:36:30.126Z,81.56
2022-11-19T11:37:30.107Z,83.11
2022-11-19T11:38:30.104Z,81.97
2022-11-19T11:39:30.088Z,82.79
2022-11-19T11:40:30.066Z,82.53
2022-11-19T11:42:04.324Z,81.70
2022-11-19T11:42:31.087Z,81.02
2022-11-19T11:43:30.033Z,81.53
2022-11-19T11:44:30.031Z,81.95
2022-11-19T11:45:30.009Z,82.35
2022-11-19T11:46:29.991Z,84.00
2022-11-19T11:47:29.981Z,84.00
2022-11-19T11:48:29.964Z,81.84
2022-11-19T11:49:29.960Z,83.18
2022-11-19T11:50:29.938Z,83.04
2022-11-19T11:51:29.947Z,83.35
2022-11-19T11:52:29.917Z,83.35
2022-11-19T11:53:29.902Z,83.76
2022-11-19T11:54:29.884Z,82.79
2022-11-19T11:55:29.884Z,82.48
2022-11-19T11:56:29.865Z,81.35
2022-11-19T11:57:29.858Z,82.04
2022-11-19T11:58:29.836Z,81.52
2022-11-19T11:59:29.826Z,81.11
2022-11-19T12:00:29.817Z,82.34
2022-11-19T12:01:29.805Z,80.49
2022-11-19T12:02:29.847Z,80.84
2022-11-19T12:03:29.778Z,80.22
2022-11-19T12:04:29.758Z,81.76
2022-11-19T12:05:29.761Z,81.15
2022-11-19T12:06:29.738Z,81.15
2022-11-19T12:07:29.865Z,81.60
2022-11-19T12:08:29.714Z,81.29
2022-11-19T12:09:29.690Z,81.81
2022-11-19T12:10:29.684Z,82.42
2022-11-19T12:11:29.680Z,83.04
2022-11-19T12:12:29.656Z,83.07
2022-11-19T12:13:29.650Z,83.39
2022-11-19T12:14:29.632Z,81.95
2022-11-19T12:15:29.613Z,82.97
2022-11-19T12:16:29.603Z,83.90
2022-11-19T12:17:29.598Z,84.52
2022-11-19T12:18:29.584Z,83.07
2022-11-19T12:19:29.559Z,82.97
2022-11-19T12:20:29.559Z,83.80
2022-11-19T12:21:29.542Z,83.39
2022-11-19T12:22:29.531Z,83.70
2022-11-19T12:23:29.557Z,84.11
2022-11-19T12:24:29.497Z,84.11
2022-11-19T12:25:29.482Z,84.62
2022-11-19T12:26:29.484Z,83.53
2022-11-19T12:27:29.461Z,84.56
2022-11-19T12:28:29.445Z,85.49
2022-11-19T12:29:29.437Z,84.77
2022-11-19T12:30:29.417Z,85.69
2022-11-19T12:31:30.172Z,86.31
2022-11-19T12:32:29.401Z,85.69
2022-11-19T12:33:29.378Z,85.49
2022-11-19T12:34:29.372Z,85.17
2022-11-19T12:35:29.378Z,85.07
2022-11-19T12:36:29.354Z,86.10
2022-11-19T12:37:29.341Z,87.24
2022-11-19T12:38:29.330Z,87.96
2022-11-19T12:39:29.346Z,87.54
2022-11-19T12:40:36.509Z,87.65
2022-11-19T12:41:30.316Z,85.59
2022-11-19T12:42:29.276Z,85.07
2022-11-19T12:43:29.265Z,85.31
2022-11-19T12:44:29.256Z,85.63
2022-11-19T12:45:29.222Z,85.11
2022-11-19T12:46:29.219Z,86.15
2022-11-19T12:47:29.232Z,85.83
2022-11-19T12:48:29.186Z,84.59
2022-11-19T12:49:29.181Z,84.91
2022-11-19T12:50:29.171Z,85.94
2022-11-19T12:51:29.161Z,86.04
2022-11-19T12:52:29.138Z,86.76